createdAt,value
2023-08-11T00:01:13.425Z,9.75
2023-08-11T00:06:17.609Z,10.05
2023-08-11T00:11:19.447Z,9.65
2023-08-11T00:16:21.089Z,9.63
2023-08-11T00:21:24.824Z,10.13
2023-08-11T00:26:26.438Z,9.55
2023-08-11T00:31:28.581Z,9.85
2023-08-11T00:36:30.179Z,10.23
2023-08-11T00:41:31.844Z,10.32
2023-08-11T00:46:33.681Z,9.60
2023-08-11T00:51:35.388Z,9.43
2023-08-11T00:56:37.333Z,9.18
2023-08-11T01:01:38.943Z,9.05
2023-08-11T01:06:48.343Z,9.20
2023-08-11T01:12:31.899Z,8.63
2023-08-11T01:17:34.558Z,9.15
2023-08-11T01:22:37.497Z,8.88
2023-08-11T01:27:47.337Z,7.43
2023-08-11T01:32:49.248Z,7.63
2023-08-11T01:37:51.233Z,7.82
2023-08-11T01:42:55.413Z,8.38
2023-08-11T01:47:57.804Z,8.27
2023-08-11T01:52:59.537Z,8.00
2023-08-11T01:58:01.305Z,8.35
2023-08-11T02:03:04.094Z,7.80
2023-08-11T02:08:06.856Z,7.68
2023-08-11T02:13:08.413Z,7.57
2023-08-11T02:18:10.192Z,7.60
2023-08-11T02:23:11.850Z,7.43
2023-08-11T02:28:13.746Z,7.53
2023-08-11T02:33:19.454Z,7.53
2023-08-11T02:38:21.168Z,7.32
2023-08-11T02:43:22.741Z,8.38
2023-08-11T02:48:24.363Z,7.68
2023-08-11T02:53:26.081Z,7.10
2023-08-11T02:58:28.167Z,7.25
2023-08-11T03:03:30.112Z,6.95
2023-08-11T03:08:32.397Z,6.68
2023-08-11T03:13:34.021Z,6.82
2023-08-11T03:18:36.609Z,6.50
2023-08-11T03:23:38.237Z,7.13
2023-08-11T03:28:40.494Z,7.20
2023-08-11T03:33:42.101Z,7.47
2023-08-11T03:38:43.713Z,7.43
2023-08-11T03:43:45.590Z,7.22
2023-08-11T03:48:47.284Z,6.95
2023-08-11T03:53:48.893Z,6.60
2023-08-11T03:58:50.445Z,7.63
2023-08-11T04:03:52.107Z,7.32
2023-08-11T04:08:53.711Z,7.47
2023-08-11T04:13:55.241Z,8.30
2023-08-11T04:18:56.809Z,9.15
2023-08-11T04:23:59.147Z,9.18
2023-08-11T04:29:05.559Z,9.25
2023-08-11T04:34:07.538Z,9.73
2023-08-11T04:39:09.336Z,9.98
2023-08-11T04:44:11.088Z,9.13
2023-08-11T04:49:12.645Z,9.98
2023-08-11T04:54:14.214Z,9.30
2023-08-11T04:59:16.696Z,9.07
2023-08-11T05:04:18.220Z,8.95
2023-08-11T05:09:20.153Z,9.20
2023-08-11T05:14:21.767Z,9.20
2023-08-11T05:19:23.498Z,9.35
2023-08-11T05:24:25.091Z,9.07
2023-08-11T05:29:27.731Z,9.05
2023-08-11T05:34:29.322Z,8.98
2023-08-11T05:39:30.947Z,9.20
2023-08-11T05:44:32.581Z,8.43
2023-08-11T05:49:34.242Z,8.10
2023-08-11T05:54:35.817Z,8.15
2023-08-11T05:59:37.503Z,7.88
2023-08-11T06:04:39.152Z,8.52
2023-08-11T06:09:40.794Z,8.38
2023-08-11T06:14:42.715Z,7.80
2023-08-11T06:19:44.261Z,7.95
2023-08-11T06:24:45.880Z,8.18
2023-08-11T06:29:47.471Z,8.43
2023-08-11T06:34:49.027Z,8.35
2023-08-11T06:39:52.702Z,8.85
2023-08-11T06:44:54.298Z,8.98
2023-08-11T06:49:55.892Z,8.70
2023-08-11T06:54:57.550Z,9.50
2023-08-11T06:59:59.338Z,10.48
2023-08-11T07:05:02.428Z,10.23
2023-08-11T07:10:04.684Z,10.07
2023-08-11T07:15:06.888Z,9.82
2023-08-11T07:20:08.867Z,10.75
2023-08-11T07:25:10.462Z,9.73
2023-08-11T07:30:12.559Z,10.38
2023-08-11T07:35:14.260Z,10.05
2023-08-11T07:40:15.850Z,10.65
2023-08-11T07:45:17.417Z,9.82
2023-08-11T07:50:19.338Z,10.27
2023-08-11T07:55:21.106Z,9.95
2023-08-11T08:00:26.233Z,9.85
2023-08-11T08:05:27.838Z,10.88
2023-08-11T08:10:29.463Z,10.73
2023-08-11T08:15:31.150Z,9.88
2023-08-11T08:20:33.042Z,9.32
2023-08-11T08:25:34.770Z,9.02
2023-08-11T08:30:36.608Z,9.20
2023-08-11T08:35:38.565Z,8.80
2023-08-11T08:40:40.297Z,7.93
2023-08-11T08:45:45.263Z,7.40
2023-08-11T08:50:46.918Z,8.07
2023-08-11T08:55:48.615Z,7.20
2023-08-11T09:00:51.540Z,8.48
2023-08-11T09:05:53.681Z,7.72
2023-08-11T09:10:55.273Z,7.55
2023-08-11T09:15:57.566Z,8.20
2023-08-11T09:21:03.483Z,8.23
2023-08-11T09:26:05.109Z,7.75
2023-08-11T09:31:07.536Z,8.02
2023-08-11T09:36:09.610Z,8.63
2023-08-11T09:41:13.290Z,9.27
2023-08-11T09:46:25.589Z,8.73
2023-08-11T09:51:30.969Z,8.52
2023-08-11T09:56:38.356Z,7.90
2023-08-11T10:01:43.387Z,8.52
2023-08-11T10:06:51.267Z,8.35
2023-08-11T10:11:55.281Z,7.30
2023-08-11T10:16:57.432Z,6.95
2023-08-11T10:22:00.697Z,6.07
2023-08-11T10:27:02.633Z,6.78
2023-08-11T10:32:04.743Z,6.32
2023-08-11T10:37:08.054Z,6.25
2023-08-11T10:42:14.415Z,7.28
2023-08-11T10:52:21.604Z,6.97
2023-08-11T10:57:24.308Z,6.35
2023-08-11T11:02:26.442Z,7.05
2023-08-11T11:07:28.058Z,7.40
2023-08-11T11:12:29.689Z,6.82
2023-08-11T11:17:31.306Z,6.75
2023-08-11T11:22:32.881Z,6.18
2023-08-11T11:27:41.637Z,6.65
2023-08-11T11:32:46.175Z,6.28
2023-08-11T11:37:47.862Z,6.00
2023-08-11T11:42:49.862Z,5.80
2023-08-11T11:47:51.600Z,5.85
2023-08-11T11:52:54.652Z,5.97
2023-08-11T11:57:57.167Z,5.18
2023-08-11T12:02:59.747Z,5.78
2023-08-11T12:08:01.500Z,5.35
2023-08-11T12:13:04.384Z,5.43
2023-08-11T12:18:09.415Z,5.40
2023-08-11T12:23:11.043Z,4.50
2023-08-11T12:28:12.599Z,4.50
2023-08-11T12:33:14.748Z,4.68
2023-08-11T12:38:17.485Z,4.63
2023-08-11T12:43:19.153Z,4.00
2023-08-11T12:48:20.823Z,3.53
2023-08-11T12:53:22.378Z,3.13
2023-08-11T12:58:24.022Z,2.67
2023-08-11T13:03:25.735Z,2.28
2023-08-11T13:08:27.347Z,2.60
2023-08-11T13:13:29.032Z,2.90
2023-08-11T13:18:30.648Z,3.30
2023-08-11T13:23:34.474Z,2.45
2023-08-11T13:28:36.053Z,2.65
2023-08-11T13:33:37.665Z,2.20
2023-08-11T13:38:39.228Z,2.60
2023-08-11T13:43:40.768Z,2.60
2023-08-11T13:48:42.311Z,2.63
2023-08-11T13:53:43.941Z,1.95
2023-08-11T13:58:45.584Z,1.80
2023-08-11T14:03:47.249Z,2.47
2023-08-11T14:08:48.996Z,1.95
2023-08-11T14:13:50.755Z,2.58
2023-08-11T14:18:55.278Z,2.95
2023-08-11T14:23:58.217Z,2.90
2023-08-11T14:29:04.414Z,2.60
2023-08-11T14:34:06.462Z,2.40
2023-08-11T14:39:08.478Z,2.70
2023-08-11T14:44:10.082Z,2.33
2023-08-11T14:49:11.653Z,2.40
2023-08-11T14:54:13.195Z,2.65
2023-08-11T14:59:16.545Z,2.90
2023-08-11T15:04:18.225Z,2.63
2023-08-11T15:09:19.779Z,3.28
2023-08-11T15:14:21.362Z,2.45
2023-08-11T15:19:23.342Z,2.50
2023-08-11T15:24:24.967Z,2.38
2023-08-11T15:29:26.566Z,2.78
2023-08-11T15:34:28.159Z,2.17
2023-08-11T15:39:29.798Z,1.67
2023-08-11T15:44:32.593Z,2.30
2023-08-11T15:49:34.197Z,1.65
2023-08-11T15:54:36.688Z,1.60
2023-08-11T15:59:38.206Z,1.50
2023-08-11T16:04:39.861Z,1.50
2023-08-11T16:09:41.522Z,1.63
2023-08-11T16:14:43.090Z,1.23
2023-08-11T16:19:44.657Z,1.75
2023-08-11T16:24:46.279Z,1.30
2023-08-11T16:29:47.804Z,1.75
2023-08-11T16:34:49.445Z,1.80
2023-08-11T16:39:51.076Z,1.70
2023-08-11T16:44:52.668Z,1.67
2023-08-11T16:49:54.359Z,1.45
2023-08-11T16:54:56.599Z,1.50
2023-08-11T16:59:58.168Z,1.30
2023-08-11T17:04:59.772Z,1.60
2023-08-11T17:10:01.476Z,1.60
2023-08-11T17:15:04.665Z,1.80
2023-08-11T17:20:08.820Z,2.08
2023-08-11T17:25:10.729Z,2.30
2023-08-11T17:30:14.160Z,2.00
2023-08-11T17:35:16.020Z,2.00
2023-08-11T17:40:17.623Z,2.22
2023-08-11T17:45:19.237Z,2.20
2023-08-11T17:50:20.810Z,2.05
2023-08-11T17:55:22.521Z,1.77
2023-08-11T18:00:24.202Z,1.35
2023-08-11T18:05:25.785Z,1.70
2023-08-11T18:10:27.401Z,1.63
2023-08-11T18:15:29.060Z,1.63
2023-08-11T18:20:30.652Z,1.30
2023-08-11T18:25:32.188Z,1.50
2023-08-11T18:30:33.774Z,1.45
2023-08-11T18:35:35.658Z,3.67
2023-08-11T18:40:37.255Z,2.38
2023-08-11T18:45:38.873Z,1.35
2023-08-11T18:50:40.419Z,0.80
2023-08-11T18:55:41.977Z,1.45
2023-08-11T19:00:43.573Z,1.10
2023-08-11T19:05:45.170Z,17.77
2023-08-11T19:10:46.846Z,1.58
2023-08-11T19:15:49.125Z,1.17
2023-08-11T19:20:50.820Z,1.52
2023-08-11T19:25:52.450Z,1.50
2023-08-11T19:30:54.940Z,1.35
2023-08-11T19:35:56.542Z,1.30
2023-08-11T19:40:58.268Z,1.13
2023-08-11T19:45:59.923Z,1.40
2023-08-11T19:51:01.569Z,1.40
2023-08-11T19:56:03.303Z,1.27
2023-08-11T20:01:07.080Z,1.90
2023-08-11T20:06:08.753Z,1.80
2023-08-11T20:11:10.443Z,1.98
2023-08-11T20:16:12.035Z,1.75
2023-08-11T20:21:14.074Z,1.42
2023-08-11T20:26:15.641Z,1.80
2023-08-11T20:31:17.344Z,1.70
2023-08-11T20:36:19.019Z,1.77
2023-08-11T20:41:20.658Z,1.90
2023-08-11T20:46:22.331Z,1.92
2023-08-11T20:51:23.916Z,1.80
2023-08-11T20:56:25.508Z,2.10
2023-08-11T21:01:27.208Z,1.50
2023-08-11T21:06:31.641Z,1.70
2023-08-11T21:11:33.270Z,1.73
2023-08-11T21:16:34.880Z,1.63
2023-08-11T21:21:36.626Z,1.48
2023-08-11T21:26:39.637Z,2.53
2023-08-11T21:31:41.257Z,1.70
2023-08-11T21:36:42.933Z,1.67
2023-08-11T21:41:44.561Z,2.03
2023-08-11T21:46:46.392Z,1.27
2023-08-11T21:51:47.925Z,2.03
2023-08-11T21:56:49.783Z,1.70
2023-08-11T22:01:51.504Z,2.00
2023-08-11T22:06:53.067Z,1.70
2023-08-11T22:11:54.617Z,1.88
2023-08-11T22:16:58.336Z,2.00
2023-08-11T22:21:59.915Z,1.92
2023-08-11T22:27:01.834Z,1.25
2023-08-11T22:32:04.326Z,1.58
2023-08-11T22:37:05.899Z,1.58
2023-08-11T22:42:07.461Z,1.63
2023-08-11T22:47:09.231Z,1.60
2023-08-11T22:52:11.276Z,1.90
2023-08-11T22:57:13.097Z,2.22
2023-08-11T23:02:14.912Z,1.85
2023-08-11T23:07:16.747Z,2.00
2023-08-11T23:12:18.302Z,2.90
2023-08-11T23:17:19.873Z,2.58
2023-08-11T23:22:21.486Z,3.58
2023-08-11T23:27:28.557Z,3.47
2023-08-11T23:32:30.660Z,4.75
2023-08-11T23:37:32.364Z,3.72
2023-08-11T23:42:33.891Z,4.10
2023-08-11T23:47:35.588Z,4.00
2023-08-11T23:52:37.358Z,4.40
2023-08-11T23:57:39.530Z,4.00
